createdAt,value
2023-07-07T00:00:43.078Z,1016.16
2023-07-07T00:01:43.782Z,1016.16
2023-07-07T00:02:43.809Z,1016.19
2023-07-07T00:03:43.759Z,1016.19
2023-07-07T00:04:43.717Z,1016.12
2023-07-07T00:05:43.025Z,1016.17
2023-07-07T00:06:43.044Z,1016.16
2023-07-07T00:07:43.035Z,1016.18
2023-07-07T00:08:42.992Z,1016.16
2023-07-07T00:09:42.977Z,1016.22
2023-07-07T00:10:42.969Z,1016.25
2023-07-07T00:11:43.622Z,1016.24
2023-07-07T00:12:43.640Z,1016.21
2023-07-07T00:13:43.653Z,1016.24
2023-07-07T00:14:43.619Z,1016.23
2023-07-07T00:15:43.599Z,1016.22
2023-07-07T00:16:43.667Z,1016.26
2023-07-07T00:17:43.218Z,1016.28
2023-07-07T00:18:43.565Z,1016.26
2023-07-07T00:19:42.868Z,1016.22
2023-07-07T00:20:43.547Z,1016.23
2023-07-07T00:21:42.868Z,1016.24
2023-07-07T00:22:42.847Z,1016.25
2023-07-07T00:23:42.823Z,1016.24
2023-07-07T00:24:43.503Z,1016.22
2023-07-07T00:25:42.838Z,1016.24
2023-07-07T00:26:42.802Z,1016.27
2023-07-07T00:27:43.467Z,1016.26
2023-07-07T00:28:42.782Z,1016.27
2023-07-07T00:29:43.456Z,1016.22
2023-07-07T00:30:43.484Z,1016.23
2023-07-07T00:31:42.743Z,1016.26
2023-07-07T00:32:43.451Z,1016.29
2023-07-07T00:33:43.412Z,1016.27
2023-07-07T00:34:43.380Z,1016.28
2023-07-07T00:35:42.722Z,1016.27
2023-07-07T00:36:43.376Z,1016.27
2023-07-07T00:37:43.365Z,1016.30
2023-07-07T00:38:43.354Z,1016.29
2023-07-07T00:39:43.324Z,1016.26
2023-07-07T00:40:43.364Z,1016.25
2023-07-07T00:41:43.319Z,1016.25
2023-07-07T00:42:43.316Z,1016.24
2023-07-07T00:43:43.300Z,1016.23
2023-07-07T00:44:42.617Z,1016.20
2023-07-07T00:45:43.280Z,1016.22
2023-07-07T00:46:42.671Z,1016.19
2023-07-07T00:47:45.092Z,1016.19
2023-07-07T00:48:42.583Z,1016.19
2023-07-07T00:49:45.002Z,1016.20
2023-07-07T00:50:43.226Z,1016.20
2023-07-07T00:51:42.545Z,1016.22
2023-07-07T00:52:43.205Z,1016.26
2023-07-07T00:53:42.524Z,1016.21
2023-07-07T00:54:43.180Z,1016.21
2023-07-07T00:55:43.163Z,1016.21
2023-07-07T00:56:43.150Z,1016.21
2023-07-07T00:57:42.486Z,1016.23
2023-07-07T00:58:42.483Z,1016.18
2023-07-07T00:59:42.441Z,1016.17
2023-07-07T01:00:43.183Z,1016.17
2023-07-07T01:01:43.202Z,1016.17
2023-07-07T01:02:43.169Z,1016.15
2023-07-07T01:03:43.068Z,1016.18
2023-07-07T01:04:42.430Z,1016.16
2023-07-07T01:05:43.069Z,1016.17
2023-07-07T01:06:43.050Z,1016.16
2023-07-07T01:07:43.027Z,1016.19
2023-07-07T01:08:42.337Z,1016.28
2023-07-07T01:09:42.338Z,1016.20
2023-07-07T01:10:43.001Z,1016.21
2023-07-07T01:11:42.294Z,1016.23
2023-07-07T01:12:42.962Z,1016.19
2023-07-07T01:13:43.037Z,1016.21
2023-07-07T01:14:42.964Z,1016.19
2023-07-07T01:15:42.970Z,1016.16
2023-07-07T01:16:42.282Z,1016.15
2023-07-07T01:17:42.980Z,1016.18
2023-07-07T01:18:43.177Z,1016.16
2023-07-07T01:19:42.211Z,1016.11
2023-07-07T01:20:42.214Z,1016.13
2023-07-07T01:21:42.229Z,1016.14
2023-07-07T01:22:42.890Z,1016.13
2023-07-07T01:23:42.858Z,1016.11
2023-07-07T01:24:42.845Z,1016.10
2023-07-07T01:25:42.148Z,1016.09
2023-07-07T01:26:42.213Z,1016.13
2023-07-07T01:27:42.819Z,1016.10
2023-07-07T01:28:42.807Z,1016.11
2023-07-07T01:29:42.120Z,1016.14
2023-07-07T01:30:42.767Z,1016.12
2023-07-07T01:31:42.804Z,1016.10
2023-07-07T01:32:42.115Z,1016.14
2023-07-07T01:33:42.075Z,1016.11
2023-07-07T01:34:42.053Z,1016.15
2023-07-07T01:35:42.058Z,1016.14
2023-07-07T01:36:42.036Z,1016.15
2023-07-07T01:37:42.042Z,1016.08
2023-07-07T01:38:42.012Z,1016.14
2023-07-07T01:39:42.690Z,1016.11
2023-07-07T01:40:41.999Z,1016.08
2023-07-07T01:41:42.663Z,1016.07
2023-07-07T01:42:42.649Z,1016.09
2023-07-07T01:43:42.641Z,1016.05
2023-07-07T01:44:41.975Z,1016.09
2023-07-07T01:45:42.610Z,1016.06
2023-07-07T01:46:42.797Z,1016.09
2023-07-07T01:47:42.667Z,1016.14
2023-07-07T01:48:42.590Z,1016.11
2023-07-07T01:49:42.564Z,1016.11
2023-07-07T01:50:41.902Z,1016.09
2023-07-07T01:51:41.898Z,1016.09
2023-07-07T01:52:41.866Z,1016.11
2023-07-07T01:53:42.540Z,1016.10
2023-07-07T01:54:41.858Z,1016.08
2023-07-07T01:55:41.841Z,1016.07
2023-07-07T01:56:42.506Z,1016.10
2023-07-07T01:57:42.543Z,1016.08
2023-07-07T01:58:41.811Z,1016.02
2023-07-07T01:59:42.454Z,1016.05
2023-07-07T02:00:42.476Z,1016.05
2023-07-07T02:01:41.803Z,1016.03
2023-07-07T02:02:41.786Z,1016.04
2023-07-07T02:03:41.792Z,1016.05
2023-07-07T02:04:42.537Z,1016.06
2023-07-07T02:05:42.410Z,1016.05
2023-07-07T02:06:42.411Z,1016.06
2023-07-07T02:07:41.701Z,1016.07
2023-07-07T02:08:41.713Z,1016.05
2023-07-07T02:09:42.368Z,1016.09
2023-07-07T02:10:42.384Z,1016.10
2023-07-07T02:11:42.346Z,1016.08
2023-07-07T02:12:42.322Z,1016.07
2023-07-07T02:13:41.704Z,1016.13
2023-07-07T02:14:42.315Z,1016.11
2023-07-07T02:15:42.301Z,1016.11
2023-07-07T02:16:42.288Z,1016.12
2023-07-07T02:17:42.313Z,1016.16
2023-07-07T02:18:42.285Z,1016.15
2023-07-07T02:19:42.258Z,1016.07
2023-07-07T02:20:42.266Z,1016.15
2023-07-07T02:21:41.550Z,1016.15
2023-07-07T02:22:42.221Z,1016.11
2023-07-07T02:23:42.469Z,1016.11
2023-07-07T02:24:42.208Z,1016.12
2023-07-07T02:25:41.536Z,1016.07
2023-07-07T02:26:42.178Z,1016.14
2023-07-07T02:27:42.173Z,1016.12
2023-07-07T02:28:42.163Z,1016.10
2023-07-07T02:29:41.469Z,1016.11
2023-07-07T02:30:41.455Z,1016.11
2023-07-07T02:31:41.530Z,1016.12
2023-07-07T02:32:41.462Z,1016.09
2023-07-07T02:33:41.441Z,1016.09
2023-07-07T02:34:42.098Z,1016.08
2023-07-07T02:35:42.078Z,1016.09
2023-07-07T02:36:41.409Z,1016.07
2023-07-07T02:37:42.136Z,1016.08
2023-07-07T02:38:41.375Z,1016.05
2023-07-07T02:39:42.093Z,1016.03
2023-07-07T02:40:42.023Z,1016.04
2023-07-07T02:41:41.360Z,1016.00
2023-07-07T02:42:41.337Z,1016.03
2023-07-07T02:43:42.004Z,1016.03
2023-07-07T02:44:41.300Z,1016.03
2023-07-07T02:45:41.963Z,1016.07
2023-07-07T02:46:41.314Z,1016.07
2023-07-07T02:47:41.986Z,1016.05
2023-07-07T02:48:41.955Z,1016.08
2023-07-07T02:49:41.947Z,1016.06
2023-07-07T02:50:41.909Z,1016.10
2023-07-07T02:51:43.682Z,1016.05
2023-07-07T02:52:41.226Z,1016.11
2023-07-07T02:53:41.245Z,1016.11
2023-07-07T02:54:41.221Z,1016.13
2023-07-07T02:55:41.865Z,1016.17
2023-07-07T02:56:41.865Z,1016.15
2023-07-07T02:57:41.166Z,1016.23
2023-07-07T02:58:41.169Z,1016.22
2023-07-07T02:59:41.821Z,1016.23
2023-07-07T03:00:41.199Z,1016.23
2023-07-07T03:01:41.873Z,1016.20
2023-07-07T03:02:41.825Z,1016.21
2023-07-07T03:03:41.868Z,1016.21
2023-07-07T03:04:41.768Z,1016.22
2023-07-07T03:05:41.079Z,1016.21
2023-07-07T03:06:41.754Z,1016.19
2023-07-07T03:07:41.744Z,1016.24
2023-07-07T03:08:41.732Z,1016.23
2023-07-07T03:09:41.704Z,1016.27
2023-07-07T03:10:41.040Z,1016.28
2023-07-07T03:11:41.014Z,1016.27
2023-07-07T03:12:41.012Z,1016.26
2023-07-07T03:13:41.023Z,1016.30
2023-07-07T03:14:41.669Z,1016.25
2023-07-07T03:15:41.923Z,1016.26
2023-07-07T03:16:41.715Z,1016.24
2023-07-07T03:17:41.748Z,1016.25
2023-07-07T03:18:41.679Z,1016.24
2023-07-07T03:19:41.619Z,1016.27
2023-07-07T03:20:41.666Z,1016.27
2023-07-07T03:21:41.600Z,1016.31
2023-07-07T03:22:40.913Z,1016.31
2023-07-07T03:23:41.563Z,1016.31
2023-07-07T03:24:40.884Z,1016.30
2023-07-07T03:25:41.554Z,1016.30
2023-07-07T03:26:40.860Z,1016.29
2023-07-07T03:27:41.513Z,1016.35
2023-07-07T03:28:41.796Z,1016.37
2023-07-07T03:29:41.531Z,1016.35
2023-07-07T03:30:41.518Z,1016.35
2023-07-07T03:31:41.507Z,1016.36
2023-07-07T03:32:41.524Z,1016.40
2023-07-07T03:33:41.464Z,1016.39
2023-07-07T03:34:41.454Z,1016.43
2023-07-07T03:35:41.453Z,1016.41
2023-07-07T03:36:41.417Z,1016.45
2023-07-07T03:37:41.421Z,1016.46
2023-07-07T03:38:41.411Z,1016.46
2023-07-07T03:39:41.401Z,1016.45
2023-07-07T03:40:41.393Z,1016.45
2023-07-07T03:41:41.359Z,1016.45
2023-07-07T03:42:41.365Z,1016.47
2023-07-07T03:43:41.359Z,1016.48
2023-07-07T03:44:41.350Z,1016.49
2023-07-07T03:45:41.321Z,1016.48
2023-07-07T03:46:41.402Z,1016.48
2023-07-07T03:47:41.356Z,1016.49
2023-07-07T03:48:41.333Z,1016.50
2023-07-07T03:49:41.302Z,1016.49
2023-07-07T03:50:41.263Z,1016.47
2023-07-07T03:51:41.268Z,1016.54
2023-07-07T03:52:41.257Z,1016.55
2023-07-07T03:53:41.246Z,1016.52
2023-07-07T03:54:41.244Z,1016.55
2023-07-07T03:55:41.205Z,1016.55
2023-07-07T03:56:41.214Z,1016.58
2023-07-07T03:57:41.208Z,1016.52
2023-07-07T03:58:41.194Z,1016.58
2023-07-07T03:59:41.181Z,1016.59
2023-07-07T04:00:41.158Z,1016.61
2023-07-07T04:01:41.161Z,1016.66
2023-07-07T04:02:41.217Z,1016.65
2023-07-07T04:03:42.338Z,1016.68
2023-07-07T04:04:41.256Z,1016.65
2023-07-07T04:05:42.877Z,1016.70
2023-07-07T04:06:41.112Z,1016.72
2023-07-07T04:07:41.096Z,1016.71
2023-07-07T04:08:41.091Z,1016.66
2023-07-07T04:09:41.370Z,1016.72
2023-07-07T04:10:41.066Z,1016.74
2023-07-07T04:11:41.056Z,1016.77
2023-07-07T04:12:41.049Z,1016.73
2023-07-07T04:13:41.061Z,1016.72
2023-07-07T04:14:41.000Z,1016.75
2023-07-07T04:15:41.021Z,1016.75
2023-07-07T04:16:41.036Z,1016.75
2023-07-07T04:17:41.028Z,1016.80
2023-07-07T04:18:40.968Z,1016.82
2023-07-07T04:19:40.992Z,1016.84
2023-07-07T04:20:40.963Z,1016.86
2023-07-07T04:21:40.950Z,1016.88
2023-07-07T04:22:40.937Z,1016.89
2023-07-07T04:23:40.267Z,1016.93
2023-07-07T04:24:40.917Z,1016.90
2023-07-07T04:25:40.920Z,1016.94
2023-07-07T04:26:40.244Z,1016.96
2023-07-07T04:27:40.866Z,1016.97
2023-07-07T04:28:40.208Z,1017.04
2023-07-07T04:29:40.860Z,1017.09
2023-07-07T04:30:40.860Z,1017.07
2023-07-07T04:31:40.854Z,1017.08
2023-07-07T04:32:40.263Z,1017.06
2023-07-07T04:33:41.076Z,1017.04
2023-07-07T04:34:40.806Z,1017.04
2023-07-07T04:35:40.793Z,1017.04
2023-07-07T04:36:42.396Z,1017.04
2023-07-07T04:37:40.767Z,1017.10
2023-07-07T04:38:40.762Z,1017.09
2023-07-07T04:39:40.071Z,1017.09
2023-07-07T04:40:40.738Z,1017.11
2023-07-07T04:41:40.080Z,1017.16
2023-07-07T04:42:40.702Z,1017.16
2023-07-07T04:43:40.096Z,1017.17
2023-07-07T04:44:40.696Z,1017.20
2023-07-07T04:45:40.683Z,1017.22
2023-07-07T04:46:40.747Z,1017.21
2023-07-07T04:47:40.002Z,1017.19
2023-07-07T04:48:39.966Z,1017.24
2023-07-07T04:49:39.958Z,1017.19
2023-07-07T04:50:40.628Z,1017.25
2023-07-07T04:51:40.600Z,1017.23
2023-07-07T04:52:40.628Z,1017.24
2023-07-07T04:53:40.682Z,1017.23
2023-07-07T04:54:39.917Z,1017.25
2023-07-07T04:55:39.907Z,1017.27
2023-07-07T04:56:40.551Z,1017.27
2023-07-07T04:57:40.649Z,1017.26
2023-07-07T04:58:40.575Z,1017.28
2023-07-07T04:59:40.569Z,1017.22
2023-07-07T05:00:40.540Z,1017.26
2023-07-07T05:01:39.899Z,1017.29
2023-07-07T05:02:40.635Z,1017.31
2023-07-07T05:03:39.881Z,1017.32
2023-07-07T05:04:39.832Z,1017.33
2023-07-07T05:05:40.472Z,1017.39
2023-07-07T05:06:40.477Z,1017.40
2023-07-07T05:07:39.771Z,1017.31
2023-07-07T05:08:40.444Z,1017.35
2023-07-07T05:09:40.415Z,1017.33
2023-07-07T05:10:40.404Z,1017.36
2023-07-07T05:11:39.730Z,1017.39
2023-07-07T05:12:39.729Z,1017.40
2023-07-07T05:13:39.840Z,1017.44
2023-07-07T05:14:39.744Z,1017.40
2023-07-07T05:15:40.363Z,1017.40
2023-07-07T05:16:40.417Z,1017.40
2023-07-07T05:17:39.711Z,1017.38
2023-07-07T05:18:40.345Z,1017.38
2023-07-07T05:19:39.651Z,1017.40
2023-07-07T05:20:39.619Z,1017.41
2023-07-07T05:21:40.319Z,1017.42
2023-07-07T05:22:40.289Z,1017.41
2023-07-07T05:23:40.265Z,1017.43
2023-07-07T05:24:39.611Z,1017.40
2023-07-07T05:25:39.569Z,1017.38
2023-07-07T05:26:40.244Z,1017.37
2023-07-07T05:27:39.551Z,1017.41
2023-07-07T05:28:39.571Z,1017.36
2023-07-07T05:29:39.541Z,1017.42
2023-07-07T05:30:40.201Z,1017.45
2023-07-07T05:31:39.546Z,1017.46
2023-07-07T05:32:40.235Z,1017.46
2023-07-07T05:33:40.160Z,1017.47
2023-07-07T05:34:40.160Z,1017.47
2023-07-07T05:35:40.156Z,1017.41
2023-07-07T05:36:40.146Z,1017.43
2023-07-07T05:37:40.111Z,1017.37
2023-07-07T05:38:40.113Z,1017.35
2023-07-07T05:39:39.433Z,1017.40
2023-07-07T05:40:39.415Z,1017.42
2023-07-07T05:41:39.414Z,1017.44
2023-07-07T05:42:40.073Z,1017.46
2023-07-07T05:43:39.394Z,1017.42
2023-07-07T05:44:39.367Z,1017.49
2023-07-07T05:45:39.448Z,1017.49
2023-07-07T05:46:39.532Z,1017.48
2023-07-07T05:47:39.390Z,1017.53
2023-07-07T05:48:39.322Z,1017.58
2023-07-07T05:49:40.040Z,1017.63
2023-07-07T05:50:39.304Z,1017.65
2023-07-07T05:51:39.352Z,1017.68
2023-07-07T05:52:39.320Z,1017.72
2023-07-07T05:53:39.269Z,1017.72
2023-07-07T05:54:39.274Z,1017.79
2023-07-07T05:55:39.953Z,1017.81
2023-07-07T05:56:39.267Z,1017.86
2023-07-07T05:57:39.917Z,1017.94
2023-07-07T05:58:41.656Z,1017.94
2023-07-07T05:59:39.239Z,1017.85
2023-07-07T06:00:39.207Z,1017.81
2023-07-07T06:01:40.010Z,1017.79
2023-07-07T06:02:39.873Z,1017.79
2023-07-07T06:03:39.878Z,1017.78
2023-07-07T06:04:39.841Z,1017.77
2023-07-07T06:05:39.148Z,1017.77
2023-07-07T06:06:39.813Z,1017.80
2023-07-07T06:07:39.808Z,1017.78
2023-07-07T06:08:41.588Z,1017.81
2023-07-07T06:09:39.791Z,1017.80
2023-07-07T06:10:39.158Z,1017.82
2023-07-07T06:11:39.776Z,1017.77
2023-07-07T06:12:39.761Z,1017.82
2023-07-07T06:13:39.798Z,1017.81
2023-07-07T06:14:39.752Z,1017.83
2023-07-07T06:15:39.719Z,1017.83
2023-07-07T06:16:39.828Z,1017.88
2023-07-07T06:17:39.756Z,1018.01
2023-07-07T06:18:38.991Z,1018.09
2023-07-07T06:19:39.669Z,1018.17
2023-07-07T06:20:39.682Z,1018.17
2023-07-07T06:21:38.963Z,1018.14
2023-07-07T06:22:38.971Z,1018.18
2023-07-07T06:23:39.663Z,1018.19
2023-07-07T06:24:39.617Z,1018.24
2023-07-07T06:25:38.933Z,1018.25
2023-07-07T06:26:39.619Z,1018.23
2023-07-07T06:27:39.594Z,1018.19
2023-07-07T06:28:38.897Z,1018.20
2023-07-07T06:29:38.907Z,1018.26
2023-07-07T06:30:38.879Z,1018.22
2023-07-07T06:31:38.940Z,1018.14
2023-07-07T06:32:39.560Z,1018.16
2023-07-07T06:33:39.514Z,1018.26
2023-07-07T06:34:38.868Z,1018.21
2023-07-07T06:35:38.837Z,1018.25
2023-07-07T06:36:38.824Z,1018.27
2023-07-07T06:37:38.815Z,1018.20
2023-07-07T06:38:39.472Z,1018.13
2023-07-07T06:39:38.822Z,1018.14
2023-07-07T06:40:39.462Z,1018.20
2023-07-07T06:41:39.449Z,1018.18
2023-07-07T06:42:39.438Z,1018.07
2023-07-07T06:43:39.432Z,1018.11
2023-07-07T06:44:38.720Z,1018.12
2023-07-07T06:45:39.418Z,1018.09
2023-07-07T06:46:39.435Z,1018.10
2023-07-07T06:47:39.443Z,1018.06
2023-07-07T06:48:39.360Z,1018.03
2023-07-07T06:49:39.368Z,1018.04
2023-07-07T06:50:39.372Z,1018.04
2023-07-07T06:51:38.683Z,1018.03
2023-07-07T06:52:38.667Z,1017.96
2023-07-07T06:53:39.325Z,1017.97
2023-07-07T06:54:38.664Z,1018.01
2023-07-07T06:55:39.335Z,1017.97
2023-07-07T06:56:39.296Z,1017.97
2023-07-07T06:57:39.279Z,1017.97
2023-07-07T06:58:38.620Z,1017.95
2023-07-07T06:59:39.272Z,1017.95
2023-07-07T07:00:39.275Z,1017.95
2023-07-07T07:01:39.273Z,1017.97
2023-07-07T07:02:38.585Z,1017.95
2023-07-07T07:03:38.577Z,1017.94
2023-07-07T07:04:39.214Z,1017.96
2023-07-07T07:05:39.200Z,1017.92
2023-07-07T07:06:39.170Z,1017.94
2023-07-07T07:07:38.559Z,1017.95
2023-07-07T07:08:39.182Z,1017.96
2023-07-07T07:09:39.161Z,1017.96
2023-07-07T07:10:39.159Z,1017.94
2023-07-07T07:11:39.123Z,1017.98
2023-07-07T07:12:39.128Z,1018.00
2023-07-07T07:13:39.143Z,1017.97
2023-07-07T07:14:39.136Z,1017.94
2023-07-07T07:15:39.102Z,1017.96
2023-07-07T07:16:39.106Z,1017.95
2023-07-07T07:17:39.147Z,1017.90
2023-07-07T07:18:39.065Z,1017.92
2023-07-07T07:19:39.057Z,1017.93
2023-07-07T07:20:38.397Z,1017.91
2023-07-07T07:21:39.035Z,1017.91
2023-07-07T07:22:38.340Z,1017.90
2023-07-07T07:23:39.024Z,1017.96
2023-07-07T07:24:38.323Z,1017.95
2023-07-07T07:25:38.976Z,1017.90
2023-07-07T07:26:38.314Z,1017.94
2023-07-07T07:27:38.974Z,1017.96
2023-07-07T07:28:38.965Z,1017.94
2023-07-07T07:29:38.957Z,1017.93
2023-07-07T07:30:39.002Z,1017.92
2023-07-07T07:31:39.021Z,1017.93
2023-07-07T07:32:38.259Z,1017.90
2023-07-07T07:33:38.259Z,1017.89
2023-07-07T07:34:39.145Z,1017.89
2023-07-07T07:35:38.873Z,1017.91
2023-07-07T07:36:38.894Z,1017.91
2023-07-07T07:37:39.096Z,1017.91
2023-07-07T07:38:38.871Z,1017.90
2023-07-07T07:39:38.204Z,1017.90
2023-07-07T07:40:38.167Z,1017.86
2023-07-07T07:41:38.833Z,1017.87
2023-07-07T07:42:38.820Z,1017.87
2023-07-07T07:43:39.039Z,1017.85
2023-07-07T07:44:38.785Z,1017.82
2023-07-07T07:45:38.796Z,1017.85
2023-07-07T07:46:38.132Z,1017.84
2023-07-07T07:47:38.892Z,1017.82
2023-07-07T07:48:38.748Z,1017.87
2023-07-07T07:49:38.091Z,1017.90
2023-07-07T07:50:38.741Z,1017.91
2023-07-07T07:51:41.065Z,1017.89
2023-07-07T07:52:38.724Z,1017.95
2023-07-07T07:53:38.693Z,1017.94
2023-07-07T07:54:38.042Z,1017.97
2023-07-07T07:55:38.007Z,1018.00
2023-07-07T07:56:37.997Z,1018.00
2023-07-07T07:57:38.677Z,1018.02
2023-07-07T07:58:38.655Z,1018.00
2023-07-07T07:59:37.966Z,1018.00
2023-07-07T08:00:38.639Z,1018.02
2023-07-07T08:01:37.999Z,1018.03
2023-07-07T08:02:38.612Z,1018.03
2023-07-07T08:03:38.058Z,1018.04
2023-07-07T08:04:38.597Z,1018.06
2023-07-07T08:05:38.590Z,1018.04
2023-07-07T08:06:38.612Z,1018.06
2023-07-07T08:07:38.555Z,1018.05
2023-07-07T08:08:37.895Z,1018.09
2023-07-07T08:09:37.900Z,1018.11
2023-07-07T08:10:38.546Z,1018.09
2023-07-07T08:11:37.860Z,1018.11
2023-07-07T08:12:38.525Z,1018.15
2023-07-07T08:13:40.818Z,1018.15
2023-07-07T08:14:37.800Z,1018.12
2023-07-07T08:15:38.488Z,1018.09
2023-07-07T08:16:38.492Z,1018.10
2023-07-07T08:17:38.487Z,1018.10
2023-07-07T08:18:38.494Z,1018.04
2023-07-07T08:19:38.460Z,1018.03
2023-07-07T08:20:37.758Z,1017.98
2023-07-07T08:21:37.765Z,1017.96
2023-07-07T08:22:38.418Z,1017.99
2023-07-07T08:23:37.712Z,1017.97
2023-07-07T08:24:38.431Z,1017.94
2023-07-07T08:25:37.723Z,1017.89
2023-07-07T08:26:40.194Z,1017.95
2023-07-07T08:27:39.514Z,1017.91
2023-07-07T08:28:48.851Z,1017.96
2023-07-07T08:29:38.647Z,1017.96
2023-07-07T08:30:38.354Z,1017.94
2023-07-07T08:31:37.628Z,1018.00
2023-07-07T08:32:38.330Z,1017.97
2023-07-07T08:33:41.079Z,1017.98
2023-07-07T08:34:53.816Z,1017.99
2023-07-07T08:35:38.606Z,1018.01
2023-07-07T08:36:38.277Z,1018.01
2023-07-07T08:37:37.575Z,1017.98
2023-07-07T08:38:37.567Z,1017.99
2023-07-07T08:39:38.223Z,1017.96
2023-07-07T08:40:38.212Z,1018.00
2023-07-07T08:41:38.215Z,1018.00
2023-07-07T08:42:38.202Z,1018.02
2023-07-07T08:43:37.523Z,1017.98
2023-07-07T08:44:37.519Z,1018.00
2023-07-07T08:45:38.173Z,1018.02
2023-07-07T08:46:38.215Z,1017.99
2023-07-07T08:47:38.177Z,1018.03
2023-07-07T08:48:38.122Z,1017.98
2023-07-07T08:49:37.460Z,1018.01
2023-07-07T08:50:38.129Z,1017.95
2023-07-07T08:51:37.444Z,1017.97
2023-07-07T08:52:38.099Z,1017.98
2023-07-07T08:53:38.072Z,1017.94
2023-07-07T08:54:40.224Z,1017.95
2023-07-07T08:55:37.403Z,1017.99
2023-07-07T08:56:37.382Z,1017.99
2023-07-07T08:57:38.051Z,1018.00
2023-07-07T08:58:38.263Z,1018.03
2023-07-07T08:59:38.059Z,1017.99
2023-07-07T09:00:38.020Z,1017.97
2023-07-07T09:01:38.316Z,1017.99
2023-07-07T09:02:38.001Z,1018.00
2023-07-07T09:03:37.353Z,1017.99
2023-07-07T09:04:37.393Z,1017.97
2023-07-07T09:05:37.976Z,1018.01
2023-07-07T09:06:37.953Z,1017.98
2023-07-07T09:07:37.927Z,1017.97
2023-07-07T09:08:49.469Z,1017.97
2023-07-07T09:09:38.926Z,1017.98
2023-07-07T09:10:37.921Z,1017.97
2023-07-07T09:11:37.916Z,1017.96
2023-07-07T09:12:37.878Z,1017.95
2023-07-07T09:13:37.310Z,1017.99
2023-07-07T09:14:37.184Z,1018.03
2023-07-07T09:15:37.192Z,1018.05
2023-07-07T09:16:37.864Z,1018.00
2023-07-07T09:17:38.168Z,1018.01
2023-07-07T09:18:37.149Z,1017.97
2023-07-07T09:19:37.129Z,1017.92
2023-07-07T09:20:37.149Z,1017.88
2023-07-07T09:21:37.127Z,1017.93
2023-07-07T09:22:37.101Z,1017.94
2023-07-07T09:23:37.780Z,1017.95
2023-07-07T09:24:37.774Z,1017.95
2023-07-07T09:25:49.799Z,1017.97
2023-07-07T09:26:38.742Z,1017.91
2023-07-07T09:27:37.067Z,1017.91
2023-07-07T09:28:37.735Z,1017.93
2023-07-07T09:29:37.723Z,1017.91
2023-07-07T09:30:37.694Z,1017.94
2023-07-07T09:31:37.032Z,1017.97
2023-07-07T09:32:37.720Z,1017.98
2023-07-07T09:33:39.436Z,1017.95
2023-07-07T09:34:37.670Z,1017.97
2023-07-07T09:35:37.645Z,1018.01
2023-07-07T09:36:37.653Z,1017.99
2023-07-07T09:37:36.960Z,1017.93
2023-07-07T09:38:37.636Z,1017.97
2023-07-07T09:39:37.601Z,1017.98
2023-07-07T09:40:37.598Z,1017.93
2023-07-07T09:41:37.604Z,1017.93
2023-07-07T09:42:37.603Z,1017.92
2023-07-07T09:43:45.605Z,1017.96
2023-07-07T09:44:38.579Z,1017.91
2023-07-07T09:45:36.886Z,1017.94
2023-07-07T09:46:37.611Z,1017.95
2023-07-07T09:47:39.341Z,1017.94
2023-07-07T09:48:36.841Z,1017.91
2023-07-07T09:49:36.852Z,1017.90
2023-07-07T09:50:37.513Z,1017.90
2023-07-07T09:51:36.815Z,1017.86
2023-07-07T09:52:36.803Z,1017.88
2023-07-07T09:53:46.794Z,1017.90
2023-07-07T09:54:38.458Z,1017.88
2023-07-07T09:55:38.714Z,1017.86
2023-07-07T09:56:36.756Z,1017.89
2023-07-07T09:57:36.749Z,1017.91
2023-07-07T09:58:36.806Z,1017.82
2023-07-07T09:59:37.416Z,1017.86
2023-07-07T10:00:45.474Z,1017.85
2023-07-07T10:01:37.772Z,1017.87
2023-07-07T10:02:37.418Z,1017.86
2023-07-07T10:03:36.721Z,1017.86
2023-07-07T10:04:37.433Z,1017.90
2023-07-07T10:05:37.372Z,1017.87
2023-07-07T10:06:36.669Z,1017.85
2023-07-07T10:07:36.693Z,1017.84
2023-07-07T10:08:36.665Z,1017.87
2023-07-07T10:09:36.659Z,1017.86
2023-07-07T10:10:36.619Z,1017.82
2023-07-07T10:12:38.044Z,1017.88
2023-07-07T10:13:36.633Z,1017.86
2023-07-07T10:14:37.275Z,1017.89
2023-07-07T10:15:37.262Z,1017.87
2023-07-07T10:16:37.303Z,1017.86
2023-07-07T10:17:36.636Z,1017.84
2023-07-07T10:18:45.363Z,1017.79
2023-07-07T10:19:38.223Z,1017.84
2023-07-07T10:20:36.537Z,1017.86
2023-07-07T10:21:37.197Z,1017.84
2023-07-07T10:22:36.537Z,1017.86
2023-07-07T10:23:36.510Z,1017.86
2023-07-07T10:24:36.486Z,1017.83
2023-07-07T10:25:37.158Z,1017.88
2023-07-07T10:26:36.490Z,1017.84
2023-07-07T10:27:36.496Z,1017.86
2023-07-07T10:28:37.698Z,1017.83
2023-07-07T10:29:37.125Z,1017.84
2023-07-07T10:30:37.132Z,1017.86
2023-07-07T10:31:37.163Z,1017.83
2023-07-07T10:32:37.144Z,1017.90
2023-07-07T10:33:37.080Z,1017.93
2023-07-07T10:34:37.067Z,1018.01
2023-07-07T10:35:36.366Z,1017.98
2023-07-07T10:36:37.029Z,1017.96
2023-07-07T10:37:37.039Z,1017.95
2023-07-07T10:38:41.979Z,1017.97
2023-07-07T10:39:37.373Z,1017.94
2023-07-07T10:40:37.001Z,1018.02
2023-07-07T10:41:36.340Z,1017.97
2023-07-07T10:42:36.983Z,1017.94
2023-07-07T10:43:36.307Z,1017.93
2023-07-07T10:44:36.299Z,1017.95
2023-07-07T10:45:36.973Z,1017.96
2023-07-07T10:46:36.293Z,1017.93
2023-07-07T10:47:37.036Z,1017.99
2023-07-07T10:48:36.930Z,1017.96
2023-07-07T10:49:36.308Z,1017.94
2023-07-07T10:50:36.268Z,1017.94
2023-07-07T10:51:36.241Z,1017.92
2023-07-07T10:53:36.171Z,1017.97
2023-07-07T10:54:36.750Z,1017.83
2023-07-07T10:55:36.844Z,1017.70
2023-07-07T10:56:36.845Z,1017.70
2023-07-07T10:57:36.835Z,1017.67
2023-07-07T10:58:36.825Z,1017.73
2023-07-07T11:00:38.831Z,1017.68
2023-07-07T11:01:36.795Z,1017.64
2023-07-07T11:02:36.789Z,1017.64
2023-07-07T11:03:36.825Z,1017.59
2023-07-07T11:04:36.793Z,1017.63
2023-07-07T11:05:37.856Z,1017.61
2023-07-07T11:06:36.083Z,1017.61
2023-07-07T11:07:36.061Z,1017.61
2023-07-07T11:08:36.050Z,1017.62
2023-07-07T11:09:36.066Z,1017.57
2023-07-07T11:10:36.167Z,1017.54
2023-07-07T11:11:36.004Z,1017.57
2023-07-07T11:12:36.020Z,1017.60
2023-07-07T11:13:36.056Z,1017.56
2023-07-07T11:14:36.668Z,1017.64
2023-07-07T11:15:36.649Z,1017.55
2023-07-07T11:16:36.027Z,1017.57
2023-07-07T11:17:36.012Z,1017.58
2023-07-07T11:19:36.606Z,1017.58
2023-07-07T11:20:36.602Z,1017.60
2023-07-07T11:21:36.587Z,1017.58
2023-07-07T11:22:36.560Z,1017.50
2023-07-07T11:23:35.899Z,1017.53
2023-07-07T11:24:56.330Z,1017.50
2023-07-07T11:25:37.611Z,1017.47
2023-07-07T11:26:35.862Z,1017.46
2023-07-07T11:27:35.936Z,1017.43
2023-07-07T11:28:35.817Z,1017.43
2023-07-07T11:29:35.803Z,1017.44
2023-07-07T11:30:36.502Z,1017.45
2023-07-07T11:31:35.828Z,1017.41
2023-07-07T11:32:35.845Z,1017.44
2023-07-07T11:33:36.473Z,1017.38
2023-07-07T11:34:36.476Z,1017.40
2023-07-07T11:35:36.463Z,1017.40
2023-07-07T11:36:36.428Z,1017.41
2023-07-07T11:37:35.753Z,1017.41
2023-07-07T11:38:35.724Z,1017.41
2023-07-07T11:39:35.726Z,1017.43
2023-07-07T11:40:36.419Z,1017.41
2023-07-07T11:41:37.649Z,1017.36
2023-07-07T11:42:35.690Z,1017.34
2023-07-07T11:43:36.381Z,1017.34
2023-07-07T11:44:36.371Z,1017.40
2023-07-07T11:45:36.336Z,1017.41
2023-07-07T11:46:35.688Z,1017.41
2023-07-07T11:47:35.629Z,1017.41
2023-07-07T11:48:36.576Z,1017.38
2023-07-07T11:49:36.327Z,1017.33
2023-07-07T11:50:36.269Z,1017.31
2023-07-07T11:51:36.275Z,1017.29
2023-07-07T11:52:36.269Z,1017.33
2023-07-07T11:53:36.253Z,1017.33
2023-07-07T11:54:36.243Z,1017.30
2023-07-07T11:55:35.564Z,1017.30
2023-07-07T11:56:36.241Z,1017.28
2023-07-07T11:57:37.402Z,1017.26
2023-07-07T11:58:36.195Z,1017.24
2023-07-07T11:59:36.171Z,1017.25
2023-07-07T12:00:35.501Z,1017.27
2023-07-07T12:01:36.163Z,1017.24
2023-07-07T12:02:35.487Z,1017.20
2023-07-07T12:03:35.788Z,1017.22
2023-07-07T12:04:37.112Z,1017.23
2023-07-07T12:05:35.722Z,1017.28
2023-07-07T12:06:35.445Z,1017.25
2023-07-07T12:07:35.421Z,1017.27
2023-07-07T12:08:36.102Z,1017.21
2023-07-07T12:09:36.128Z,1017.23